Time;durP1;ratioP1;P1;durP2;ratioP2;P2;SDS_P1;SDS_P2;PMS_P1;PMS_P2;Temp;Humidity;BMP_temperature;BMP_pressure;BME280_temperature;BME280_humidity;BME280_pressure;Samples;Min_cycle;Max_cycle;Signal;HPM_P1;HPM_P2
2022/07/05 00:01:40;;;;;;;9.57;3.47;;;12.30;99.90;;;;;;6218898;23;20453;-83
2022/07/05 00:04:05;;;;;;;5.78;3.40;;;12.20;99.90;;;;;;6245362;23;20091;-84
2022/07/05 00:06:31;;;;;;;6.53;3.80;;;12.30;99.90;;;;;;6246105;23;20012;-84
2022/07/05 00:08:57;;;;;;;5.22;3.95;;;12.20;99.90;;;;;;6193726;23;20016;-84
2022/07/05 00:11:22;;;;;;;8.88;4.03;;;12.20;99.90;;;;;;6245616;23;20446;-84
2022/07/05 00:13:48;;;;;;;4.45;4.00;;;12.10;99.90;;;;;;6218843;23;20432;-83
2022/07/05 00:16:14;;;;;;;11.23;4.00;;;12.10;99.90;;;;;;6218670;23;20121;-83
2022/07/05 00:18:39;;;;;;;5.35;4.25;;;12.10;99.90;;;;;;6218681;23;20420;-84
2022/07/05 00:21:05;;;;;;;6.95;4.40;;;12.10;99.90;;;;;;6218179;23;20020;-84
2022/07/05 00:23:31;;;;;;;5.55;4.35;;;12.10;99.90;;;;;;6218766;23;20385;-84
2022/07/05 00:25:56;;;;;;;8.70;4.47;;;12.00;99.90;;;;;;6245685;23;20095;-85
2022/07/05 00:28:22;;;;;;;7.18;4.70;;;12.00;99.90;;;;;;6218547;23;20087;-84
2022/07/05 00:30:48;;;;;;;8.00;4.78;;;12.00;99.90;;;;;;6218364;23;20023;-83
2022/07/05 00:33:13;;;;;;;9.23;4.65;;;12.00;99.90;;;;;;6218640;23;20027;-84
2022/07/05 00:35:39;;;;;;;8.73;5.10;;;11.90;99.90;;;;;;6218472;23;20446;-84
2022/07/05 00:38:04;;;;;;;7.60;5.38;;;11.90;99.90;;;;;;6218394;23;20375;-84
2022/07/05 00:40:30;;;;;;;7.95;5.50;;;11.90;99.90;;;;;;6245586;23;20316;-84
2022/07/05 00:42:56;;;;;;;7.55;5.70;;;12.00;99.90;;;;;;6245335;23;20082;-84
2022/07/05 00:45:21;;;;;;;8.50;5.80;;;11.80;99.90;;;;;;6245454;23;20016;-83
2022/07/05 00:47:47;;;;;;;8.27;5.80;;;11.80;99.90;;;;;;6218456;23;20008;-83
2022/07/05 00:50:13;;;;;;;8.80;6.25;;;11.80;99.90;;;;;;6245288;23;20008;-84
2022/07/05 00:52:39;;;;;;;8.27;5.55;;;11.80;99.90;;;;;;6245693;23;20050;-84
2022/07/05 00:55:05;;;;;;;10.93;6.53;;;11.80;99.90;;;;;;6220625;23;20423;-84
2022/07/05 00:57:32;;;;;;;11.38;6.18;;;11.80;99.90;;;;;;6247581;23;20016;-83
2022/07/05 00:59:58;;;;;;;9.00;6.68;;;11.90;99.90;;;;;;6247570;23;20038;-84
2022/07/05 01:02:23;;;;;;;12.43;6.22;;;11.80;99.90;;;;;;6247488;23;20012;-84
2022/07/05 01:04:50;;;;;;;11.95;6.72;;;11.80;99.90;;;;;;6219776;23;20502;-83
2022/07/05 01:07:22;;;;;;;9.27;6.15;;;11.80;99.90;;;;;;6220515;23;20324;-83
2022/07/05 01:09:47;;;;;;;10.95;6.38;;;11.80;99.90;;;;;;6247289;23;20095;-83
2022/07/05 01:12:13;;;;;;;12.18;6.65;;;11.70;99.90;;;;;;6220419;23;20047;-83
2022/07/05 01:14:41;;;;;;;9.07;6.60;;;11.70;99.90;;;;;;6220366;23;20376;-84
2022/07/05 01:17:07;;;;;;;9.27;6.53;;;11.70;99.90;;;;;;6247176;23;20088;-83
2022/07/05 01:19:32;;;;;;;11.00;6.47;;;11.60;99.90;;;;;;6246946;23;20451;-84
2022/07/05 01:22:03;;;;;;;9.68;6.10;;;11.70;99.90;;;;;;6247020;23;20424;-84
2022/07/05 01:24:29;;;;;;;9.82;6.70;;;11.60;99.90;;;;;;6220248;23;20012;-83
2022/07/05 01:26:55;;;;;;;10.05;6.72;;;11.70;99.90;;;;;;6219890;23;20093;-86
2022/07/05 01:29:21;;;;;;;9.65;6.55;;;11.60;99.90;;;;;;6246928;23;20012;-84
2022/07/05 01:31:46;;;;;;;9.65;6.40;;;11.60;99.90;;;;;;6247296;23;20019;-83
2022/07/05 01:34:12;;;;;;;10.88;6.88;;;11.60;99.90;;;;;;6246871;23;20012;-84
2022/07/05 01:36:38;;;;;;;10.23;6.45;;;11.60;99.90;;;;;;6219588;23;20047;-83
2022/07/05 01:39:05;;;;;;;11.90;7.20;;;11.60;99.90;;;;;;6219078;23;20381;-84
2022/07/05 01:41:31;;;;;;;13.63;7.10;;;11.60;99.90;;;;;;6246808;23;20016;-83
2022/07/05 01:43:58;;;;;;;11.65;6.95;;;11.60;99.90;;;;;;6219452;23;20292;-83
2022/07/05 01:46:25;;;;;;;11.82;6.95;;;11.50;99.90;;;;;;6220218;23;20047;-83
2022/07/05 01:48:56;;;;;;;11.63;6.70;;;11.50;99.90;;;;;;6220106;23;20052;-85
2022/07/05 01:51:29;;;;;;;10.45;6.53;;;11.40;99.90;;;;;;6246849;23;20016;-83
2022/07/05 01:53:55;;;;;;;11.23;7.15;;;11.50;99.90;;;;;;6246916;23;20012;-83
2022/07/05 01:56:21;;;;;;;8.82;6.70;;;11.50;99.90;;;;;;6219853;23;20077;-83
2022/07/05 01:58:47;;;;;;;9.70;7.85;;;11.50;99.90;;;;;;6246924;23;20019;-83
2022/07/05 02:01:13;;;;;;;12.52;7.43;;;11.50;99.90;;;;;;6218957;23;20336;-83
2022/07/05 02:03:43;;;;;;;10.57;7.78;;;11.40;99.90;;;;;;6246332;23;20011;-83
2022/07/05 02:06:10;;;;;;;10.97;7.20;;;11.40;99.90;;;;;;6245970;23;20499;-83
2022/07/05 02:08:36;;;;;;;11.07;7.18;;;11.40;99.90;;;;;;6246413;23;20008;-83
2022/07/05 02:11:03;;;;;;;8.88;7.55;;;11.30;99.90;;;;;;6246488;23;20016;-83
2022/07/05 02:13:29;;;;;;;11.40;7.63;;;11.30;99.90;;;;;;6219921;23;20440;-83
2022/07/05 02:15:55;;;;;;;14.35;8.10;;;11.30;99.90;;;;;;6246626;23;20087;-83
2022/07/05 02:18:20;;;;;;;11.63;7.70;;;11.30;99.90;;;;;;6246803;23;20467;-83
2022/07/05 02:20:46;;;;;;;10.32;7.65;;;11.20;99.90;;;;;;6246411;23;20379;-82
2022/07/05 02:23:12;;;;;;;12.82;8.18;;;11.20;99.90;;;;;;6246431;23;20289;-83
2022/07/05 02:25:37;;;;;;;12.75;7.85;;;11.20;99.90;;;;;;6246527;23;20039;-83
2022/07/05 02:28:04;;;;;;;13.02;8.20;;;11.20;99.90;;;;;;6246720;23;20015;-82
2022/07/05 02:30:29;;;;;;;13.60;8.52;;;11.20;99.90;;;;;;6246456;23;20024;-83
2022/07/05 02:32:55;;;;;;;12.77;8.32;;;11.10;99.90;;;;;;6219235;23;20055;-83
2022/07/05 02:35:21;;;;;;;10.48;7.82;;;11.10;99.90;;;;;;6219187;23;20016;-82
2022/07/05 02:37:46;;;;;;;11.48;8.38;;;11.20;99.90;;;;;;6246374;23;20014;-83
2022/07/05 02:40:13;;;;;;;12.27;8.80;;;11.20;99.90;;;;;;6193839;23;20020;-83
2022/07/05 02:42:39;;;;;;;13.82;9.35;;;11.30;99.90;;;;;;6219514;23;20023;-83
2022/07/05 02:45:06;;;;;;;13.02;9.40;;;11.30;99.90;;;;;;6246055;23;20014;-83
2022/07/05 02:47:34;;;;;;;13.07;9.00;;;11.30;99.90;;;;;;6246411;23;20328;-83
2022/07/05 02:50:04;;;;;;;15.30;9.73;;;11.20;99.90;;;;;;6219223;23;20066;-83
2022/07/05 02:52:29;;;;;;;12.43;9.40;;;11.20;99.90;;;;;;6219475;23;20115;-83
2022/07/05 02:54:55;;;;;;;13.73;9.15;;;11.10;99.90;;;;;;6246387;23;20678;-83
2022/07/05 02:57:22;;;;;;;18.15;11.05;;;11.10;99.90;;;;;;6246167;23;20091;-83
2022/07/05 02:59:47;;;;;;;17.42;11.00;;;11.10;99.90;;;;;;6246180;23;20016;-83
2022/07/05 03:02:13;;;;;;;13.40;8.57;;;11.10;99.90;;;;;;6246032;23;20058;-83
2022/07/05 03:04:39;;;;;;;12.70;9.13;;;11.10;99.90;;;;;;6245706;23;20011;-84
2022/07/05 03:07:05;;;;;;;13.27;10.32;;;11.10;99.90;;;;;;6245889;23;20031;-83
2022/07/05 03:09:30;;;;;;;17.00;11.18;;;11.20;99.90;;;;;;6213674;23;20013;-83
2022/07/05 03:11:56;;;;;;;17.63;11.38;;;11.30;99.90;;;;;;6215391;23;20328;-83
2022/07/05 03:14:22;;;;;;;15.10;11.18;;;11.20;99.90;;;;;;6215678;23;20293;-82
2022/07/05 03:16:47;;;;;;;16.27;10.93;;;11.30;99.90;;;;;;6213985;23;20328;-83
2022/07/05 03:19:13;;;;;;;19.08;11.82;;;11.20;99.90;;;;;;6215590;23;20017;-83
2022/07/05 03:21:38;;;;;;;14.35;10.75;;;11.40;99.90;;;;;;6214095;23;20020;-83
2022/07/05 03:24:04;;;;;;;16.90;11.68;;;11.40;99.90;;;;;;6215478;23;20021;-82
2022/07/05 03:26:30;;;;;;;9.57;8.50;;;11.20;99.90;;;;;;6215465;23;20155;-83
2022/07/05 03:28:56;;;;;;;17.23;10.77;;;11.40;99.90;;;;;;6215508;23;20110;-82
2022/07/05 03:31:21;;;;;;;18.92;11.55;;;11.20;99.90;;;;;;6215614;23;20055;-82
2022/07/05 03:33:47;;;;;;;15.63;11.07;;;11.20;99.90;;;;;;6214072;23;20016;-82
2022/07/05 03:36:12;;;;;;;15.48;10.80;;;11.20;99.90;;;;;;6213736;23;20020;-82
2022/07/05 03:38:38;;;;;;;16.40;11.98;;;11.20;99.90;;;;;;6215462;23;20024;-82
2022/07/05 03:41:04;;;;;;;16.38;10.68;;;11.20;99.90;;;;;;6215900;23;20325;-83
2022/07/05 03:43:29;;;;;;;15.15;11.45;;;11.20;99.90;;;;;;6213758;23;20016;-83
2022/07/05 03:45:55;;;;;;;15.93;12.05;;;11.20;99.90;;;;;;6188966;23;20008;-83
2022/07/05 03:48:21;;;;;;;15.07;11.75;;;11.20;99.90;;;;;;6215460;23;20364;-82
2022/07/05 03:50:47;;;;;;;16.15;12.02;;;11.30;99.90;;;;;;6213916;23;20020;-82
2022/07/05 03:53:12;;;;;;;15.50;11.75;;;11.60;99.90;;;;;;6213633;23;20075;-82
2022/07/05 03:55:38;;;;;;;16.50;11.90;;;11.50;99.90;;;;;;6213733;23;20017;-82
2022/07/05 03:58:04;;;;;;;14.43;11.20;;;11.50;99.90;;;;;;6215380;23;20359;-82
2022/07/05 04:00:29;;;;;;;13.10;10.00;;;11.70;99.90;;;;;;6215279;23;20016;-82
2022/07/05 04:02:55;;;;;;;11.23;9.90;;;11.70;99.90;;;;;;6215225;23;20036;-85
2022/07/05 04:05:20;;;;;;;11.43;10.23;;;11.90;99.90;;;;;;6215458;23;20019;-82
2022/07/05 04:07:54;;;;;;;11.25;8.80;;;12.00;99.90;;;;;;6215212;23;20012;-82
2022/07/05 04:10:20;;;;;;;16.20;10.70;;;12.20;99.90;;;;;;6237593;23;20434;-83
2022/07/05 04:12:46;;;;;;;13.00;10.20;;;12.30;99.90;;;;;;6245526;23;20027;-83
2022/07/05 04:15:13;;;;;;;11.35;8.65;;;12.40;99.90;;;;;;6193521;23;20012;-83
2022/07/05 04:17:50;;;;;;;9.93;7.53;;;12.60;99.90;;;;;;6193385;23;20091;-82
2022/07/05 04:20:16;;;;;;;12.95;9.23;;;12.80;99.90;;;;;;6218626;23;20099;-83
2022/07/05 04:22:42;;;;;;;12.98;8.48;;;12.90;99.90;;;;;;6193235;23;20408;-83
2022/07/05 04:25:17;;;;;;;10.65;8.35;;;13.00;99.90;;;;;;6193473;23;20095;-83
2022/07/05 04:27:46;;;;;;;12.38;7.55;;;13.10;99.90;;;;;;6193964;23;20012;-83
2022/07/05 04:30:13;;;;;;;9.52;7.25;;;13.20;99.90;;;;;;6247187;23;20320;-83
2022/07/05 04:32:39;;;;;;;13.20;7.57;;;13.30;99.90;;;;;;6247534;23;20008;-83
2022/07/05 04:35:05;;;;;;;10.82;7.63;;;13.50;99.90;;;;;;6220494;23;20331;-83
2022/07/05 04:37:30;;;;;;;11.00;7.22;;;13.60;99.90;;;;;;6247534;23;20034;-82
2022/07/05 04:39:56;;;;;;;8.98;6.85;;;13.60;99.90;;;;;;6247441;23;20027;-83
2022/07/05 04:42:22;;;;;;;11.82;7.35;;;13.70;99.90;;;;;;6220193;23;20016;-82
2022/07/05 04:44:47;;;;;;;8.63;6.90;;;13.90;99.90;;;;;;6246887;23;20363;-83
2022/07/05 04:47:13;;;;;;;7.55;5.72;;;13.90;99.90;;;;;;6247338;23;20012;-83
2022/07/05 04:49:39;;;;;;;13.90;6.68;;;13.90;99.90;;;;;;6247320;23;20168;-85
2022/07/05 04:52:04;;;;;;;8.13;7.25;;;14.10;99.90;;;;;;6247278;23;20061;-83
2022/07/05 04:54:30;;;;;;;14.68;8.13;;;14.00;99.90;;;;;;6247340;23;20428;-83
2022/07/05 04:56:56;;;;;;;10.20;7.25;;;14.10;99.90;;;;;;6246970;23;20016;-83
2022/07/05 04:59:21;;;;;;;10.32;7.63;;;14.00;99.90;;;;;;6220569;23;20016;-83
2022/07/05 05:01:47;;;;;;;11.95;7.40;;;14.00;99.90;;;;;;6220283;23;20091;-83
2022/07/05 05:04:12;;;;;;;10.10;7.05;;;14.10;99.90;;;;;;6247081;23;20013;-84
2022/07/05 05:06:38;;;;;;;11.98;7.82;;;14.10;99.90;;;;;;6247182;23;20328;-84
2022/07/05 05:09:04;;;;;;;9.13;7.40;;;14.00;99.90;;;;;;6220264;23;20020;-83
2022/07/05 05:11:30;;;;;;;11.52;7.80;;;14.00;99.90;;;;;;6247171;23;20024;-83
2022/07/05 05:13:56;;;;;;;11.27;7.97;;;14.10;99.90;;;;;;6247278;23;20015;-84
2022/07/05 05:16:22;;;;;;;12.25;6.75;;;14.10;99.90;;;;;;6246813;23;20047;-84
2022/07/05 05:18:47;;;;;;;11.40;7.43;;;14.20;99.90;;;;;;6247115;23;20095;-83
2022/07/05 05:21:13;;;;;;;10.63;6.93;;;14.20;99.90;;;;;;6220197;23;20047;-84
2022/07/05 05:23:38;;;;;;;8.00;6.05;;;14.40;99.90;;;;;;6247285;23;20048;-84
2022/07/05 05:26:04;;;;;;;10.60;6.85;;;14.50;99.90;;;;;;6247312;23;20356;-84
2022/07/05 05:28:30;;;;;;;8.65;6.75;;;14.70;99.90;;;;;;6220444;23;20058;-85
2022/07/05 05:30:55;;;;;;;9.13;6.15;;;14.90;99.90;;;;;;6220681;23;20304;-85
2022/07/05 05:33:21;;;;;;;7.47;5.38;;;15.10;99.90;;;;;;6219893;23;20015;-85
2022/07/05 05:35:47;;;;;;;9.82;5.30;;;15.30;99.90;;;;;;6247519;23;20012;-84
2022/07/05 05:38:12;;;;;;;9.80;5.53;;;15.40;99.90;;;;;;6220298;23;20008;-84
2022/07/05 05:40:38;;;;;;;7.80;5.32;;;15.60;99.90;;;;;;6219633;23;20016;-85
2022/07/05 05:43:04;;;;;;;7.75;5.78;;;15.60;99.90;;;;;;6247155;23;20012;-86
2022/07/05 05:45:30;;;;;;;9.80;5.68;;;15.60;99.90;;;;;;6247151;23;20024;-86
2022/07/05 05:47:58;;;;;;;7.90;4.72;;;15.60;99.90;;;;;;6246968;23;20089;-84
2022/07/05 05:50:25;;;;;;;7.22;5.15;;;15.80;99.90;;;;;;6219846;23;20015;-85
2022/07/05 05:52:51;;;;;;;6.13;5.05;;;15.70;99.90;;;;;;6195344;23;20019;-85
2022/07/05 05:55:18;;;;;;;9.73;4.90;;;15.80;99.90;;;;;;6247143;23;20012;-85
2022/07/05 05:57:44;;;;;;;8.63;4.65;;;15.80;99.90;;;;;;6194763;23;20012;-86
2022/07/05 06:00:11;;;;;;;8.95;5.50;;;15.80;99.90;;;;;;6247105;23;20442;-85
2022/07/05 06:02:38;;;;;;;7.32;5.18;;;15.90;99.90;;;;;;6220179;23;20014;-85
2022/07/05 06:05:04;;;;;;;6.60;4.40;;;16.00;99.90;;;;;;6219851;23;20008;-85
2022/07/05 06:07:30;;;;;;;8.40;4.82;;;16.00;99.90;;;;;;6246738;23;20019;-85
2022/07/05 06:09:55;;;;;;;8.82;4.93;;;16.10;99.90;;;;;;6219949;23;20012;-84
2022/07/05 06:12:21;;;;;;;7.35;4.78;;;16.20;99.90;;;;;;6246567;23;20023;-85
2022/07/05 06:14:47;;;;;;;6.90;4.60;;;16.30;99.90;;;;;;6219963;23;20008;-84
2022/07/05 06:17:12;;;;;;;4.05;3.45;;;16.40;99.90;;;;;;6220328;23;20316;-86
2022/07/05 06:19:38;;;;;;;5.35;4.10;;;16.50;99.90;;;;;;6194331;23;20020;-85
2022/07/05 06:22:04;;;;;;;9.35;4.13;;;16.50;99.90;;;;;;6246667;23;20020;-85
2022/07/05 06:24:29;;;;;;;5.60;3.92;;;16.70;99.90;;;;;;6246503;23;20085;-85
2022/07/05 06:26:56;;;;;;;5.57;3.78;;;16.80;99.90;;;;;;6219886;23;20058;-85
2022/07/05 06:29:22;;;;;;;6.82;3.60;;;16.90;99.90;;;;;;6219839;23;20094;-85
2022/07/05 06:31:48;;;;;;;10.45;4.18;;;17.00;99.90;;;;;;6246794;23;20016;-85
2022/07/05 06:34:13;;;;;;;8.27;3.97;;;17.30;99.90;;;;;;6220473;23;20459;-86
2022/07/05 06:36:39;;;;;;;7.53;3.40;;;17.20;99.90;;;;;;6246517;23;20070;-89
2022/07/05 06:39:04;;;;;;;4.70;3.30;;;17.40;99.90;;;;;;6246448;23;20047;-87
2022/07/05 06:41:30;;;;;;;4.53;3.38;;;17.60;99.90;;;;;;6219953;23;20012;-87
2022/07/05 06:44:14;;;;;;;6.97;3.55;;;17.70;99.90;;;;;;6246923;23;20047;-86
2022/07/05 06:46:40;;;;;;;4.20;2.35;;;17.80;99.90;;;;;;6247329;23;20035;-84
2022/07/05 06:49:05;;;;;;;5.28;2.08;;;17.90;99.90;;;;;;6220387;23;20424;-85
2022/07/05 06:51:31;;;;;;;3.28;1.92;;;18.30;99.90;;;;;;6246741;23;20016;-87
2022/07/05 06:53:56;;;;;;;4.68;2.40;;;18.70;99.90;;;;;;6220126;23;20090;-87
2022/07/05 06:56:22;;;;;;;6.03;2.10;;;19.10;99.90;;;;;;6194838;23;20023;-84
2022/07/05 06:58:48;;;;;;;4.38;1.70;;;19.40;99.90;;;;;;6247194;23;20107;-88
2022/07/05 07:01:13;;;;;;;4.35;1.83;;;19.30;99.90;;;;;;6246768;23;20043;-86
2022/07/05 07:03:39;;;;;;;5.47;1.70;;;19.60;99.90;;;;;;6220706;23;20009;-86
2022/07/05 07:06:07;;;;;;;4.55;1.50;;;20.00;99.90;;;;;;6220644;23;20435;-89
2022/07/05 07:11:18;;;;;;;3.90;1.27;;;20.70;99.90;;;;;;6251601;23;20026;-86
2022/07/05 07:13:44;;;;;;;2.95;1.27;;;21.00;99.90;;;;;;6221216;23;20043;-86
2022/07/05 07:16:09;;;;;;;15.65;1.90;;;21.30;99.90;;;;;;6247615;23;20012;-86
2022/07/05 07:18:35;;;;;;;3.47;1.60;;;21.70;99.90;;;;;;6194615;23;20022;-87
2022/07/05 07:21:01;;;;;;;5.95;1.20;;;22.10;99.90;;;;;;6219832;23;20016;-87
2022/07/05 07:23:27;;;;;;;4.13;1.10;;;22.50;99.90;;;;;;6219787;23;20022;-88
2022/07/05 07:25:52;;;;;;;6.93;1.20;;;22.60;99.90;;;;;;6246782;23;20095;-87
2022/07/05 07:28:18;;;;;;;3.60;1.00;;;22.40;99.90;;;;;;6219256;23;20384;-86
2022/07/05 07:30:43;;;;;;;4.70;1.00;;;22.30;99.90;;;;;;6194325;23;20012;-83
2022/07/05 07:33:09;;;;;;;6.18;1.02;;;22.20;99.90;;;;;;6246365;23;20047;-86
2022/07/05 07:35:37;;;;;;;8.82;1.10;;;22.10;99.90;;;;;;6220244;23;20323;-87
2022/07/05 07:38:03;;;;;;;4.32;0.98;;;21.70;99.90;;;;;;6219677;23;20016;-86
2022/07/05 07:40:29;;;;;;;3.88;0.82;;;21.30;99.90;;;;;;6246721;23;20015;-85
2022/07/05 07:42:54;;;;;;;4.88;1.15;;;20.90;99.90;;;;;;6194302;23;20020;-87
2022/07/05 07:45:20;;;;;;;1.92;0.98;;;20.80;99.90;;;;;;6193869;23;20091;-87
2022/07/05 07:47:45;;;;;;;3.03;1.00;;;21.20;99.90;;;;;;6247631;23;20070;-85
2022/07/05 07:50:11;;;;;;;6.32;1.02;;;21.60;99.90;;;;;;6247430;23;20063;-88
2022/07/05 07:52:40;;;;;;;3.35;0.75;;;22.10;99.90;;;;;;6219387;23;20297;-87
2022/07/05 07:55:06;;;;;;;3.72;1.10;;;23.10;97.40;;;;;;6219589;23;20043;-87
2022/07/05 07:57:33;;;;;;;3.58;0.90;;;23.60;93.10;;;;;;6220004;23;20008;-86
2022/07/05 07:59:59;;;;;;;5.30;1.15;;;23.40;93.60;;;;;;6247217;23;20016;-87
2022/07/05 08:02:25;;;;;;;10.52;1.08;;;23.00;97.80;;;;;;6245998;23;20016;-87
2022/07/05 08:04:51;;;;;;;6.75;1.05;;;23.10;93.30;;;;;;6245806;23;20092;-87
2022/07/05 08:07:18;;;;;;;5.38;2.00;;;22.80;94.70;;;;;;6218815;23;20020;-86
2022/07/05 08:09:44;;;;;;;4.50;1.25;;;22.70;92.50;;;;;;6220111;23;20047;-87
2022/07/05 08:12:10;;;;;;;2.42;0.85;;;23.30;85.00;;;;;;6219824;23;20020;-84
2022/07/05 08:14:35;;;;;;;1.88;0.75;;;23.30;74.20;;;;;;6246108;23;20012;-88
2022/07/05 08:17:01;;;;;;;2.03;0.95;;;22.70;83.80;;;;;;6219545;23;20023;-87
2022/07/05 08:22:11;;;;;;;4.78;0.82;;;24.30;78.30;;;;;;6218966;23;20023;-85
2022/07/05 08:24:39;;;;;;;4.95;1.02;;;24.70;69.50;;;;;;6246229;23;20004;-87
2022/07/05 08:27:08;;;;;;;5.55;1.02;;;25.10;68.60;;;;;;6245712;23;20020;-84
2022/07/05 08:29:34;;;;;;;4.93;0.88;;;26.20;63.10;;;;;;6218941;23;20013;-87
2022/07/05 08:32:00;;;;;;;3.92;0.70;;;26.60;62.30;;;;;;6246017;23;20074;-85
2022/07/05 08:34:25;;;;;;;4.22;0.80;;;26.60;62.30;;;;;;6218498;23;20059;-84
2022/07/05 08:36:51;;;;;;;3.17;0.95;;;26.30;61.10;;;;;;6219082;23;20012;-85
2022/07/05 08:39:17;;;;;;;2.33;0.80;;;26.00;60.50;;;;;;6245473;23;20075;-84
2022/07/05 08:41:49;;;;;;;4.95;0.80;;;25.40;60.20;;;;;;6218787;23;20062;-87
2022/07/05 08:44:18;;;;;;;2.55;0.70;;;24.70;61.90;;;;;;6218684;23;20124;-87
2022/07/05 08:46:46;;;;;;;3.60;0.90;;;25.00;62.60;;;;;;6218743;23;20083;-83
2022/07/05 08:49:13;;;;;;;3.00;0.70;;;25.40;58.90;;;;;;6245757;23;20324;-86
2022/07/05 08:51:41;;;;;;;3.42;0.75;;;25.60;57.80;;;;;;6219022;23;20049;-87
2022/07/05 08:54:12;;;;;;;3.42;0.80;;;25.70;58.30;;;;;;6246301;23;20429;-86
2022/07/05 08:56:37;;;;;;;;;;;26.10;56.30;;;;;;6219288;23;20320;-87
2022/07/05 08:59:21;;;;;;;3.22;0.90;;;26.00;56.40;;;;;;6218989;23;19912;-87
2022/07/05 09:01:49;;;;;;;2.13;0.70;;;26.00;58.20;;;;;;6219080;23;20305;-85
2022/07/05 09:04:17;;;;;;;3.33;0.70;;;26.50;55.60;;;;;;6218710;23;20091;-84
2022/07/05 09:06:46;;;;;;;3.70;1.02;;;27.30;53.60;;;;;;6245735;23;20301;-87
2022/07/05 09:09:12;;;;;;;5.80;0.60;;;27.80;52.30;;;;;;6218832;23;20299;-87
2022/07/05 09:11:40;;;;;;;4.45;0.82;;;27.60;52.70;;;;;;6245752;23;20129;-88
2022/07/05 09:14:23;;;;;;;2.10;0.70;;;27.90;52.30;;;;;;6220119;23;20016;-88
2022/07/05 09:16:49;;;;;;;3.00;0.75;;;28.90;52.80;;;;;;6220742;23;20324;-86
2022/07/05 09:19:15;;;;;;;4.65;1.25;;;29.80;50.10;;;;;;6220683;23;20095;-86
2022/07/05 09:21:41;;;;;;;5.97;1.13;;;29.50;49.50;;;;;;6247617;23;20067;-88
2022/07/05 09:24:09;;;;;;;4.50;0.98;;;28.10;50.80;;;;;;6247617;23;20087;-86
2022/07/05 09:26:49;;;;;;;4.05;0.90;;;26.40;53.50;;;;;;6221333;23;20016;-87
2022/07/05 09:29:18;;;;;;;5.88;1.10;;;25.10;59.30;;;;;;6220734;23;20016;-86
2022/07/05 09:31:52;;;;;;;6.03;0.93;;;24.50;61.50;;;;;;6247434;23;20012;-86
2022/07/05 09:34:19;;;;;;;3.92;0.77;;;25.30;59.50;;;;;;6220935;23;20019;-87
2022/07/05 09:36:55;;;;;;;3.13;0.63;;;26.40;55.60;;;;;;6247222;23;20099;-85
2022/07/05 09:39:29;;;;;;;5.35;1.00;;;25.60;53.60;;;;;;6220528;23;20062;-87
2022/07/05 09:42:13;;;;;;;1.80;0.70;;;24.70;56.50;;;;;;6220954;23;20055;-88
2022/07/05 09:44:44;;;;;;;4.70;0.90;;;24.90;56.30;;;;;;6194767;23;20399;-87
2022/07/05 09:47:12;;;;;;;3.42;0.77;;;25.40;59.70;;;;;;6220461;23;20087;-87
2022/07/05 09:49:46;;;;;;;3.33;0.70;;;26.00;56.30;;;;;;6247388;23;20019;-84
2022/07/05 09:52:26;;;;;;;2.05;0.63;;;25.50;55.00;;;;;;6220389;23;20008;-87
2022/07/05 09:55:16;;;;;;;4.20;0.88;;;24.60;58.00;;;;;;6220925;23;20016;-87
2022/07/05 09:57:43;;;;;;;6.07;1.08;;;23.80;62.50;;;;;;6220776;23;20012;-86
2022/07/05 10:00:17;;;;;;;3.05;0.68;;;23.30;66.20;;;;;;6220488;23;20432;-86
2022/07/05 10:02:50;;;;;;;3.40;0.80;;;23.70;67.40;;;;;;6220417;23;20027;-87
2022/07/05 10:05:26;;;;;;;3.72;0.80;;;24.30;65.50;;;;;;6220291;23;20012;-86
2022/07/05 10:07:56;;;;;;;6.22;1.17;;;24.20;63.00;;;;;;6220542;23;20015;-85
2022/07/05 10:10:30;;;;;;;2.83;0.77;;;24.70;62.60;;;;;;6246890;23;20020;-85
2022/07/05 10:12:57;;;;;;;3.88;0.82;;;25.10;59.80;;;;;;6248180;23;20498;-86
2022/07/05 10:15:27;;;;;;;4.65;0.77;;;24.60;61.00;;;;;;6222566;23;20012;-88
2022/07/05 10:17:58;;;;;;;6.32;1.10;;;24.20;60.50;;;;;;6220596;23;20004;-87
2022/07/05 10:20:28;;;;;;;6.18;0.95;;;23.70;62.60;;;;;;6246915;23;20037;-86
2022/07/05 10:22:55;;;;;;;2.65;0.90;;;22.90;64.10;;;;;;6247203;23;20008;-88
2022/07/05 10:25:22;;;;;;;2.85;0.90;;;22.40;70.20;;;;;;6219772;23;20012;-84
2022/07/05 10:27:53;;;;;;;3.40;0.90;;;22.00;72.10;;;;;;6221067;23;20043;-87
2022/07/05 10:30:20;;;;;;;3.13;0.80;;;22.40;76.00;;;;;;6220422;23;20111;-87
2022/07/05 10:32:47;;;;;;;3.83;1.00;;;24.40;67.40;;;;;;6220385;23;20012;-87
2022/07/05 10:35:12;;;;;;;4.82;0.90;;;25.90;58.10;;;;;;6246752;23;20083;-86
2022/07/05 10:37:39;;;;;;;5.10;0.98;;;26.60;58.00;;;;;;6246597;23;20044;-84
2022/07/05 10:40:06;;;;;;;4.50;0.80;;;26.80;56.00;;;;;;6246740;23;20051;-85
2022/07/05 10:42:41;;;;;;;3.17;1.08;;;26.20;53.80;;;;;;6194065;23;20034;-84
2022/07/05 10:45:32;;;;;;;2.75;0.88;;;25.00;56.10;;;;;;6219887;23;20419;-87
2022/07/05 10:48:16;;;;;;;5.35;1.05;;;24.00;60.70;;;;;;6195093;23;20059;-86
2022/07/05 10:50:50;;;;;;;4.18;1.00;;;22.90;66.50;;;;;;6194937;23;20050;-84
2022/07/05 10:53:18;;;;;;;3.30;0.73;;;22.20;74.10;;;;;;6246987;23;20012;-86
2022/07/05 10:56:11;;;;;;;7.75;0.80;;;22.50;76.30;;;;;;6246952;23;20023;-90
2022/07/05 10:58:44;;;;;;;3.53;1.10;;;22.60;79.80;;;;;;6216070;23;20317;-85
2022/07/05 11:01:19;;;;;;;4.13;1.48;;;23.70;72.10;;;;;;6247990;23;20008;-85
2022/07/05 11:03:57;;;;;;;6.82;0.80;;;24.60;67.10;;;;;;6222480;23;20027;-87
2022/07/05 11:06:31;;;;;;;3.20;0.90;;;24.40;65.20;;;;;;6226372;23;20008;-90
2022/07/05 11:09:00;;;;;;;4.90;1.20;;;23.70;66.70;;;;;;6238274;23;20022;-87
2022/07/05 11:11:34;;;;;;;4.60;1.25;;;23.10;72.70;;;;;;6239734;23;20016;-85
2022/07/05 11:14:02;;;;;;;2.95;0.70;;;22.90;77.20;;;;;;6235800;23;20016;-88
2022/07/05 11:16:35;;;;;;;6.38;1.10;;;22.70;79.80;;;;;;6225279;23;20015;-87
2022/07/05 11:19:05;;;;;;;5.13;0.90;;;22.50;80.50;;;;;;6199312;23;20023;-87
2022/07/05 11:21:32;;;;;;;3.95;1.20;;;22.30;91.30;;;;;;6223353;23;20448;-87
2022/07/05 11:24:25;;;;;;;4.20;1.10;;;22.20;87.60;;;;;;6247569;23;20008;-87
2022/07/05 11:26:55;;;;;;;3.75;1.00;;;23.30;77.50;;;;;;6220153;23;20017;-87
2022/07/05 11:29:53;;;;;;;6.90;1.17;;;23.50;73.60;;;;;;6219402;23;20047;-94
2022/07/05 11:32:34;;;;;;;2.00;0.82;;;22.90;75.50;;;;;;6245534;23;20008;-86
2022/07/05 11:35:17;;;;;;;7.03;1.33;;;22.20;79.50;;;;;;6246471;23;20010;-89
2022/07/05 11:38:03;;;;;;;2.88;0.82;;;21.70;90.40;;;;;;6219484;23;20079;-86
2022/07/05 11:40:30;;;;;;;5.07;1.00;;;21.50;92.50;;;;;;6194536;23;20083;-88
2022/07/05 11:42:56;;;;;;;4.13;0.77;;;21.80;87.60;;;;;;6192997;23;20019;-87
2022/07/05 11:45:24;;;;;;;4.25;0.98;;;22.40;81.70;;;;;;6245892;23;20051;-83
2022/07/05 11:47:56;;;;;;;3.00;0.95;;;22.80;76.30;;;;;;6246086;23;20012;-86
2022/07/05 11:50:33;;;;;;;4.10;1.15;;;23.60;71.90;;;;;;6246106;23;20023;-86
2022/07/05 11:53:00;;;;;;;5.07;0.93;;;25.30;63.90;;;;;;6194024;23;20016;-89
2022/07/05 11:55:28;;;;;;;2.33;0.80;;;26.70;57.80;;;;;;6246327;23;20012;-85
2022/07/05 11:57:55;;;;;;;4.93;0.90;;;27.50;55.10;;;;;;6245982;23;20008;-85
2022/07/05 12:00:33;;;;;;;3.83;0.90;;;27.40;53.90;;;;;;6245870;23;20020;-85
2022/07/05 12:02:59;;;;;;;5.70;0.98;;;27.30;51.20;;;;;;6245875;23;20082;-88
2022/07/05 12:05:30;;;;;;;4.85;1.00;;;27.00;52.90;;;;;;6194238;23;20436;-86
2022/07/05 12:07:57;;;;;;;2.97;1.10;;;26.60;52.50;;;;;;6218935;23;20040;-87
2022/07/05 12:13:08;;;;;;;2.85;0.70;;;26.80;51.70;;;;;;6218938;23;20146;-85
2022/07/05 12:15:34;;;;;;;4.47;0.82;;;25.70;52.10;;;;;;6245700;23;20019;-86
2022/07/05 12:18:03;;;;;;;5.15;0.80;;;24.90;53.80;;;;;;6245507;23;20448;-84
2022/07/05 12:20:30;;;;;;;2.80;0.70;;;24.40;54.10;;;;;;6245718;23;20016;-85
2022/07/05 12:22:56;;;;;;;2.00;0.65;;;24.60;54.90;;;;;;6245825;23;20012;-84
2022/07/05 12:25:24;;;;;;;3.72;0.60;;;24.80;55.00;;;;;;6245817;23;20082;-84
2022/07/05 12:27:51;;;;;;;2.38;0.60;;;25.30;53.00;;;;;;6245863;23;20087;-86
2022/07/05 12:30:18;;;;;;;1.85;0.52;;;25.30;53.40;;;;;;6245692;23;20070;-87
2022/07/05 12:33:01;;;;;;;3.13;0.70;;;25.30;53.30;;;;;;6218905;23;20020;-84
2022/07/05 12:35:33;;;;;;;1.95;0.70;;;25.60;51.30;;;;;;6245239;23;20020;-86
2022/07/05 12:38:09;;;;;;;3.13;0.60;;;26.00;50.70;;;;;;6245693;23;20022;-85
2022/07/05 12:40:38;;;;;;;2.25;0.77;;;26.70;49.20;;;;;;6218750;23;20012;-86
2022/07/05 12:43:06;;;;;;;1.23;0.50;;;27.00;49.00;;;;;;6169206;23;20343;-87
2022/07/05 12:45:32;;;;;;;2.15;0.68;;;26.60;48.60;;;;;;6218821;23;20014;-85
2022/07/05 12:48:00;;;;;;;1.95;0.47;;;26.70;48.30;;;;;;6218659;23;20070;-87
2022/07/05 12:50:28;;;;;;;1.23;0.40;;;26.20;47.50;;;;;;6220813;23;20016;-85
2022/07/05 12:58:53;;;;;;;2.83;0.50;;;25.90;50.20;;;;;;6221170;23;20432;-88
2022/07/05 13:01:22;;;;;;;2.60;0.90;;;26.30;49.30;;;;;;6196221;23;20376;-85